Airfield :
LOGIN :

Register | Disclaimer

   EN    FR    IT 

 










Legend :    VFR   Marginal VFR   IFR   Intensive IFR   Very Intensive IFR
Visi :
Ceiling :
>= 8 km
>= 3000ft
5 to 8 km
1000 to 3000 ft
1500m to 5 km
500 to 1000 ft
800 to 1500m
200 to 500 ft
< 800m
< 200 ft
Symbols :   Thunderstorms  Fog  Heavy snow  Heavy precipitations  Wind > 20 kt
SIGMETs :     Misc.  Thunderstorms  Icing  Turbulence  Mountain Waves  Volcanic Ashes







- Airport Elevation : 72 ft
- IATA code : UDE


EHVK - Volkel Airbase

CURRENT METAR :
  • 121155Z AUTO 05006KT 030V090 9999 OVC033 04/02 Q1026 BLU

EXPIRED METARs :
  • 121145Z AUTO 06006KT 9999 OVC032 04/02 Q1026 BLU
  • 121125Z AUTO 06005KT 9999 OVC033 04/03 Q1026 BLU
  • 121055Z AUTO 06005KT 030V090 9000 BR OVC037 04/03 Q1026 BLU
  • 121038Z AUTO 06005KT 030V090 8000 BR BKN038 04/03 Q1026 BLU
  • 121025Z AUTO 06005KT 7000 BR OVC039 03/03 Q1026 WHT
  • 121005Z AUTO 06005KT 7000 BR OVC039 03/02 Q1026 WHT
  • 120955Z AUTO 05004KT 5000 BR OVC041 03/02 Q1026 WHT
  • 120946Z AUTO 04003KT 5000 BR OVC041 03/02 Q1026 WHT
  • 120925Z AUTO 05002KT 3700 BR OVC040 02/02 Q1026 GRN

TAF TAF EHVK
Valid from the 12 at 10:00 until the 12 at 22:00 UTC


120941Z 1210/1222 04004KT 6000 BKN040
No reported NOTAMs for that airfield.



MET'MAP, your aeronautical weather chart ! - Copyright ORBIFLY December 2007 - Disclaimer

ORBIFLY MET'MAP TEAM :

Programming & Development : Alexandra Zaïnal
Concept & Development : Baudouin d'Aumeries
Co-Development & Prog : Marc-Olivier Méhu
Technical & hardware support : Manuel Goepfert

Contact : metmap@orbifly.com




SOURCES & CREDITS :

   NOAA